createdAt,value
2018-07-12T00:01:50.844Z,99.90
2018-07-12T00:06:45.676Z,99.90
2018-07-12T00:09:12.965Z,99.90
2018-07-12T00:11:40.249Z,99.90
2018-07-12T00:14:07.539Z,99.90
2018-07-12T00:16:34.823Z,99.90
2018-07-12T00:19:02.115Z,99.90
2018-07-12T00:21:29.397Z,99.90
2018-07-12T00:23:56.675Z,99.90
2018-07-12T00:26:23.963Z,99.90
2018-07-12T00:28:51.368Z,99.90
2018-07-12T00:31:18.658Z,99.90
2018-07-12T00:33:45.992Z,99.90
2018-07-12T00:36:13.238Z,99.90
2018-07-12T00:38:40.532Z,99.90
2018-07-12T00:41:07.833Z,99.90
2018-07-12T00:43:35.114Z,99.90
2018-07-12T00:46:02.388Z,99.90
2018-07-12T00:48:29.679Z,99.90
2018-07-12T00:53:24.508Z,99.90
2018-07-12T00:55:51.835Z,99.90
2018-07-12T00:58:19.139Z,99.90
2018-07-12T01:00:46.415Z,99.90
2018-07-12T01:03:13.715Z,99.90
2018-07-12T01:08:08.548Z,99.90
2018-07-12T01:10:35.815Z,99.90
2018-07-12T01:13:03.128Z,99.90
2018-07-12T01:17:57.948Z,99.90
2018-07-12T01:22:52.811Z,99.90
2018-07-12T01:25:20.110Z,99.90
2018-07-12T01:30:14.939Z,99.90
2018-07-12T01:32:42.215Z,99.90
2018-07-12T01:35:09.543Z,99.90
2018-07-12T01:40:04.347Z,99.90
2018-07-12T01:47:26.760Z,99.90
2018-07-12T09:43:25.559Z,99.90
2018-07-12T09:45:54.136Z,99.90
2018-07-12T09:48:22.615Z,99.90
2018-07-12T09:50:51.333Z,99.90
2018-07-12T09:53:19.867Z,99.90
2018-07-12T09:55:48.625Z,99.90
2018-07-12T09:58:24.859Z,99.90
2018-07-12T10:00:58.767Z,99.90
2018-07-12T10:03:32.483Z,99.90
2018-07-12T10:06:01.032Z,99.90
2018-07-12T10:08:34.826Z,99.90
2018-07-12T10:11:07.751Z,99.90
2018-07-12T10:13:41.488Z,99.90
2018-07-12T10:16:15.169Z,99.90
2018-07-12T10:18:43.624Z,99.90
2018-07-12T10:21:12.079Z,99.90
2018-07-12T10:23:40.610Z,99.90
2018-07-12T10:26:09.039Z,99.90
2018-07-12T10:28:37.564Z,99.90
2018-07-12T10:31:06.051Z,99.90
2018-07-12T10:33:34.600Z,99.90
2018-07-12T10:36:03.107Z,99.90
2018-07-12T10:38:31.577Z,99.90
2018-07-12T10:41:00.100Z,99.90
2018-07-12T10:43:28.645Z,99.90
2018-07-12T10:45:57.200Z,99.90
2018-07-12T10:48:25.711Z,99.90
2018-07-12T10:50:54.243Z,99.90
2018-07-12T10:53:22.677Z,99.90
2018-07-12T10:55:51.182Z,99.90
2018-07-12T10:58:19.835Z,99.90
2018-07-12T11:00:48.396Z,99.90
2018-07-12T11:03:16.928Z,99.90
2018-07-12T11:10:41.784Z,99.90
2018-07-12T11:13:16.221Z,99.90
2018-07-12T11:15:46.016Z,99.90
2018-07-12T11:18:14.755Z,99.90
2018-07-12T11:20:43.282Z,99.90
2018-07-12T11:23:11.741Z,99.90
2018-07-12T11:25:40.220Z,99.90
2018-07-12T11:28:08.752Z,99.90
2018-07-12T11:30:37.335Z,99.90
2018-07-12T11:33:31.977Z,99.90
2018-07-12T11:36:00.476Z,99.90
2018-07-12T11:38:29.883Z,99.90
2018-07-12T11:40:58.331Z,99.90
2018-07-12T11:43:27.181Z,99.90
2018-07-12T11:45:55.723Z,99.90
2018-07-12T11:48:24.423Z,99.90
2018-07-12T11:53:21.167Z,99.90
2018-07-12T11:55:49.635Z,99.90
2018-07-12T11:58:18.163Z,99.90
2018-07-12T12:00:46.892Z,99.90
2018-07-12T12:03:15.600Z,99.90
2018-07-12T12:05:44.056Z,99.90
2018-07-12T12:08:14.191Z,99.90
2018-07-12T12:10:43.367Z,99.90
2018-07-12T12:13:11.875Z,99.90
2018-07-12T12:15:40.556Z,99.90
2018-07-12T12:18:09.041Z,99.90
2018-07-12T12:20:37.847Z,99.90
2018-07-12T12:23:06.609Z,99.90
2018-07-12T12:25:35.277Z,99.90
2018-07-12T12:28:04.027Z,99.90
2018-07-12T12:35:29.001Z,99.90
2018-07-12T12:37:57.623Z,99.70
2018-07-12T12:40:26.398Z,99.90
2018-07-12T12:42:55.460Z,99.90
2018-07-12T12:45:24.017Z,99.90
2018-07-12T12:50:21.191Z,99.90
2018-07-12T12:52:49.650Z,99.90
2018-07-12T12:55:19.477Z,99.80
2018-07-12T12:57:47.916Z,99.90
2018-07-12T13:00:16.516Z,99.00
2018-07-12T13:02:45.279Z,99.20
2018-07-12T13:05:13.767Z,98.70
2018-07-12T13:07:42.347Z,96.20
2018-07-12T13:10:10.968Z,97.20
2018-07-12T13:12:39.561Z,93.70
2018-07-12T13:17:36.182Z,93.10
2018-07-12T13:20:04.923Z,93.50
2018-07-12T13:22:33.415Z,94.80
2018-07-12T13:25:01.962Z,95.50
2018-07-12T13:28:33.695Z,95.70
2018-07-12T13:31:02.222Z,95.60
2018-07-12T13:33:30.741Z,96.20
2018-07-12T13:35:59.379Z,97.40
2018-07-12T13:38:27.890Z,96.70
2018-07-12T13:40:56.501Z,96.40
2018-07-12T13:43:25.045Z,95.90
2018-07-12T13:45:53.526Z,95.90
2018-07-12T13:48:22.068Z,96.80
2018-07-12T18:31:14.771Z,84.20
2018-07-12T18:33:43.243Z,84.50
2018-07-12T18:36:11.775Z,84.70
2018-07-12T18:38:40.655Z,84.10
2018-07-12T18:43:37.443Z,84.80
2018-07-12T18:48:34.069Z,85.40
2018-07-12T18:53:30.789Z,85.60
2018-07-12T18:55:59.314Z,86.10
2018-07-12T18:58:27.850Z,86.20
2018-07-12T19:00:56.389Z,87.30
2018-07-12T19:03:24.871Z,86.90
2018-07-12T19:08:21.592Z,90.10
2018-07-12T19:10:50.144Z,90.80
2018-07-12T19:13:18.719Z,91.30
2018-07-12T19:15:47.466Z,91.70
2018-07-12T19:18:15.971Z,92.00
2018-07-12T19:20:44.731Z,92.20
2018-07-12T19:23:13.191Z,92.60
2018-07-12T19:25:41.916Z,92.90
2018-07-12T19:35:34.929Z,94.00
2018-07-12T19:40:31.663Z,94.40
2018-07-12T19:43:00.167Z,94.60
2018-07-12T19:45:28.791Z,94.90
2018-07-12T19:47:58.880Z,95.00
2018-07-12T19:50:28.080Z,95.10
2018-07-12T19:52:57.349Z,95.00
2018-07-12T19:57:54.692Z,95.20
2018-07-12T20:00:23.243Z,95.20
2018-07-12T20:02:51.733Z,95.20
2018-07-12T20:05:20.279Z,95.20
2018-07-12T20:07:48.851Z,95.40
2018-07-12T20:10:17.490Z,95.70
2018-07-12T20:12:46.072Z,95.50
2018-07-12T20:15:15.082Z,95.50
2018-07-12T20:17:43.595Z,95.60
2018-07-12T20:20:12.679Z,95.70
2018-07-12T20:22:41.292Z,95.60
2018-07-12T20:27:38.052Z,95.90
2018-07-12T20:32:35.146Z,96.20
2018-07-12T20:35:03.599Z,96.20
2018-07-12T20:40:00.772Z,96.60
2018-07-12T20:44:58.747Z,96.80
2018-07-12T20:47:27.249Z,96.90
2018-07-12T20:49:55.759Z,97.00
2018-07-12T20:52:24.259Z,97.20
2018-07-12T20:54:53.320Z,97.30
2018-07-12T20:57:22.353Z,97.60
2018-07-12T20:59:51.589Z,97.70
2018-07-12T21:02:20.096Z,97.70
2018-07-12T21:04:48.640Z,97.80
2018-07-12T21:07:17.154Z,98.00
2018-07-12T21:09:45.643Z,98.00
2018-07-12T21:12:14.078Z,98.20
2018-07-12T21:14:42.608Z,98.30
2018-07-12T21:17:11.080Z,98.50
2018-07-12T21:19:39.623Z,98.60
2018-07-12T21:22:08.524Z,98.90
2018-07-12T21:24:37.007Z,99.00
2018-07-12T21:27:05.652Z,99.10
2018-07-12T21:29:34.200Z,99.20
2018-07-12T21:32:02.915Z,99.40
2018-07-12T21:34:31.545Z,99.60
2018-07-12T21:37:00.126Z,99.80
2018-07-12T21:39:28.664Z,99.90
2018-07-12T21:41:57.207Z,99.90
2018-07-12T21:44:25.768Z,99.90
2018-07-12T21:46:54.153Z,99.90
2018-07-12T21:49:22.656Z,99.90
2018-07-12T21:51:51.238Z,99.90
2018-07-12T21:54:19.703Z,99.90
2018-07-12T21:56:48.210Z,99.90
2018-07-12T22:01:44.855Z,99.90
2018-07-12T22:04:13.340Z,99.90
2018-07-12T22:07:03.986Z,99.90
2018-07-12T22:09:32.469Z,99.90
2018-07-12T22:12:01.069Z,99.90
2018-07-12T22:14:29.604Z,99.90
2018-07-12T22:16:58.148Z,99.90
2018-07-12T22:19:26.657Z,99.90
2018-07-12T22:21:55.128Z,99.90
2018-07-12T22:24:23.588Z,99.90
2018-07-12T22:26:52.267Z,99.90
2018-07-12T22:29:20.736Z,99.90
2018-07-12T22:31:49.227Z,99.90
2018-07-12T22:34:17.742Z,99.90
2018-07-12T22:36:46.186Z,99.90
2018-07-12T22:39:14.803Z,99.90
2018-07-12T22:41:43.301Z,99.90
2018-07-12T22:44:11.824Z,99.90
2018-07-12T22:46:40.353Z,99.90
2018-07-12T22:49:08.871Z,99.90
2018-07-12T22:59:02.264Z,99.90
2018-07-12T23:01:30.745Z,99.90
2018-07-12T23:03:59.191Z,99.90
2018-07-12T23:06:27.676Z,99.90
2018-07-12T23:08:56.211Z,99.90
2018-07-12T23:11:24.619Z,99.90
2018-07-12T23:13:53.139Z,99.90
2018-07-12T23:16:21.677Z,99.90
2018-07-12T23:18:50.219Z,99.90
2018-07-12T23:21:18.744Z,99.90
2018-07-12T23:23:47.248Z,99.90
2018-07-12T23:26:16.752Z,99.90
2018-07-12T23:28:45.219Z,99.90
2018-07-12T23:31:13.741Z,99.90
2018-07-12T23:33:42.183Z,99.90
2018-07-12T23:36:10.686Z,99.90
2018-07-12T23:38:39.173Z,99.90
2018-07-12T23:41:07.685Z,99.90
2018-07-12T23:43:37.080Z,99.90
2018-07-12T23:46:05.526Z,99.90
2018-07-12T23:48:35.044Z,99.90
2018-07-12T23:51:03.555Z,99.90
2018-07-12T23:53:32.020Z,99.90
2018-07-12T23:56:00.508Z,99.90
2018-07-12T23:58:28.999Z,99.90
